Time;durP1;ratioP1;P1;durP2;ratioP2;P2;SDS_P1;SDS_P2;PMS_P1;PMS_P2;Temp;Humidity;BMP_temperature;BMP_pressure;BME280_temperature;BME280_humidity;BME280_pressure;Samples;Min_cycle;Max_cycle;Signal;HPM_P1;HPM_P2
2022/06/27 00:00:53;;;;;;;;;16.00;14.50;;;;;20.05;78.58;99647.94;6285504;20;2813912;-53
2022/06/27 00:03:21;;;;;;;;;14.00;14.00;;;;;19.84;80.03;99652.88;6284136;20;2491950;-49
2022/06/27 00:05:50;;;;;;;;;17.33;17.33;;;;;19.73;80.30;99645.78;6283455;20;3553420;-51
2022/06/27 00:08:18;;;;;;;;;18.00;17.00;;;;;19.67;82.63;99640.94;6316515;20;2824304;-54
2022/06/27 00:10:47;;;;;;;;;19.67;16.67;;;;;20.10;80.68;99629.25;6283354;20;3561780;-51
2022/06/27 00:13:16;;;;;;;;;16.00;15.00;;;;;20.14;79.75;99648.88;6316564;20;2819036;-51
2022/06/27 00:15:44;;;;;;;;;17.33;16.00;;;;;19.99;80.47;99658.63;6279711;20;3561693;-53
2022/06/27 00:18:13;;;;;;;;;20.00;18.67;;;;;20.11;80.24;99660.09;6286199;20;3573256;-49
2022/06/27 00:20:42;;;;;;;;;19.50;18.00;;;;;19.62;82.61;99644.09;6311682;20;2835767;-50
2022/06/27 00:23:10;;;;;;;;;16.00;16.00;;;;;19.57;84.22;99651.00;6283991;20;2483626;-52
2022/06/27 00:25:38;;;;;;;;;15.00;15.00;;;;;19.49;84.16;99659.94;6287868;20;3540876;-52
2022/06/27 00:28:07;;;;;;;;;18.33;17.33;;;;;19.70;83.38;99660.56;6317975;20;3565971;-51
2022/06/27 00:30:36;;;;;;;;;18.00;16.50;;;;;19.65;83.33;99667.44;6278556;20;2833618;-51
2022/06/27 00:33:05;;;;;;;;;16.00;15.00;;;;;19.51;84.41;99669.69;6285458;20;2817026;-51
2022/06/27 00:35:34;;;;;;;;;17.50;17.50;;;;;19.80;83.56;99665.06;6284920;20;2835668;-58
2022/06/27 00:38:03;;;;;;;;;21.50;18.50;;;;;19.85;83.38;99665.47;6284805;20;2713819;-59
2022/06/27 00:40:32;;;;;;;;;20.33;18.00;;;;;19.51;84.64;99675.13;6317598;20;3575288;-59
2022/06/27 00:43:01;;;;;;;;;21.00;18.00;;;;;19.51;85.16;99672.41;6281229;20;2823229;-59
2022/06/27 00:45:29;;;;;;;;;20.50;18.00;;;;;19.32;87.70;99669.75;6283606;20;2818044;-60
2022/06/27 00:47:58;;;;;;;;;19.67;18.33;;;;;19.77;84.33;99674.41;6300030;20;3566900;-59
2022/06/27 00:50:27;;;;;;;;;18.50;17.00;;;;;19.57;85.10;99678.25;6281726;20;2829909;-59
2022/06/27 00:52:56;;;;;;;;;17.00;17.00;;;;;19.47;85.71;99673.69;6280779;20;2824214;-59
2022/06/27 00:55:25;;;;;;;;;19.50;17.50;;;;;19.28;87.33;99673.81;6280915;20;2831491;-59
2022/06/27 00:57:54;;;;;;;;;19.00;19.00;;;;;19.19;88.56;99685.59;6285460;20;3577333;-60
2022/06/27 01:00:23;;;;;;;;;18.00;18.00;;;;;19.07;89.33;99688.50;6278426;20;2833588;-59
2022/06/27 01:02:52;;;;;;;;;23.50;21.00;;;;;19.42;87.19;99692.34;6282882;20;2838826;-59
2022/06/27 01:05:21;;;;;;;;;21.50;17.00;;;;;19.43;86.99;99688.66;6283333;20;2827380;-59
2022/06/27 01:07:49;;;;;;;;;17.50;16.50;;;;;19.17;88.57;99688.47;6282713;20;2825322;-59
2022/06/27 01:10:18;;;;;;;;;18.00;17.00;;;;;19.06;89.97;99691.38;6283897;20;3555541;-59
2022/06/27 01:12:49;;;;;;;;;20.67;19.33;;;;;18.86;90.82;99687.88;6317261;20;3564819;-60
2022/06/27 01:15:18;;;;;;;;;18.00;17.00;;;;;19.21;89.67;99681.72;6278657;20;2841913;-60
2022/06/27 01:17:47;;;;;;;;;17.50;17.50;;;;;19.42;87.55;99686.06;6280930;20;2826417;-60
2022/06/27 01:20:16;;;;;;;;;19.00;16.00;;;;;19.22;88.64;99683.44;6279318;20;2829523;-59
2022/06/27 01:22:45;;;;;;;;;16.00;16.00;;;;;19.14;88.53;99685.19;6283341;20;2831560;-59
2022/06/27 01:25:14;;;;;;;;;20.00;19.00;;;;;19.02;89.65;99679.94;6279491;20;2844452;-59
2022/06/27 01:27:45;;;;;;;;;25.67;25.67;;;;;19.15;89.71;99684.19;6281238;20;3591976;-58
2022/06/27 01:30:14;;;;;;;;;27.00;27.00;;;;;19.19;88.69;99685.59;6314574;20;3604461;-59
2022/06/27 01:32:42;;;;;;;;;16.67;16.67;;;;;19.19;88.75;99680.16;6287070;20;3562755;-58
2022/06/27 01:35:11;;;;;;;;;18.50;17.50;;;;;19.20;88.81;99681.88;6281179;20;2829444;-59
2022/06/27 01:37:40;;;;;;;;;15.50;15.50;;;;;19.19;88.86;99682.88;6283394;20;2821343;-58
2022/06/27 01:40:08;;;;;;;;;19.00;17.50;;;;;19.23;88.38;99670.69;6282536;20;2483680;-59
2022/06/27 01:42:37;;;;;;;;;14.00;14.00;;;;;19.10;89.73;99670.16;6280929;20;3525247;-60
2022/06/27 01:45:07;;;;;;;;;21.00;18.00;;;;;19.13;89.17;99680.75;6277597;20;2487755;-58
2022/06/27 01:47:36;;;;;;;;;15.50;15.50;;;;;19.19;88.56;99678.28;6283202;20;2825270;-58
2022/06/27 01:50:05;;;;;;;;;15.50;15.00;;;;;19.15;88.89;99673.31;6278690;20;2491934;-59
2022/06/27 01:52:34;;;;;;;;;16.50;14.50;;;;;19.24;88.11;99673.25;6281996;20;2812777;-59
2022/06/27 01:55:04;;;;;;;;;17.00;15.00;;;;;19.16;88.57;99675.84;6281701;20;3552568;-59
2022/06/27 01:57:30;;;;;;;;;16.50;16.50;;;;;18.91;90.21;99679.28;6309126;20;2483641;-60
2022/06/27 01:59:59;;;;;;;;;17.50;16.00;;;;;19.05;89.51;99674.19;6279849;20;2833588;-60
2022/06/27 02:02:27;;;;;;;;;17.00;17.00;;;;;18.94;89.86;99679.81;6280729;20;2830450;-59
2022/06/27 02:04:54;;;;;;;;;17.50;16.00;;;;;18.95;90.29;99677.94;6280012;20;2496102;-60
2022/06/27 02:07:23;;;;;;;;;17.00;17.00;;;;;19.06;89.87;99675.03;6277056;20;3559701;-56
2022/06/27 02:09:51;;;;;;;;;17.50;15.50;;;;;18.88;90.68;99677.69;6279158;20;2815953;-60
2022/06/27 02:12:22;;;;;;;;;15.50;14.00;;;;;18.73;90.99;99679.13;6280278;20;2814959;-59
2022/06/27 02:14:53;;;;;;;;;14.00;14.00;;;;;18.97;90.12;99676.78;6275634;20;2487812;-60
2022/06/27 02:17:23;;;;;;;;;17.00;16.00;;;;;18.99;90.13;99672.06;6273986;20;2491912;-59
2022/06/27 02:19:54;;;;;;;;;15.83;13.33;;;;;18.91;90.45;99682.84;6302835;20;2811775;-59
2022/06/27 02:22:23;;;;;;;;;16.67;14.67;;;;;18.89;90.28;99678.56;6310393;20;3536705;-60
2022/06/27 02:24:52;;;;;;;;;17.67;16.33;;;;;18.99;88.97;99682.09;6315460;20;3571097;-61
2022/06/27 02:27:22;;;;;;;;;17.33;14.67;;;;;19.02;89.21;99684.53;6308252;20;3553504;-61
2022/06/27 02:29:51;;;;;;;;;15.67;15.00;;;;;18.91;90.27;99693.72;6281058;20;3529425;-60
2022/06/27 02:32:19;;;;;;;;;14.00;14.00;;;;;18.96;89.23;99702.31;6279302;20;3528382;-58
2022/06/27 02:34:51;;;;;;;;;15.00;15.00;;;;;19.02;89.28;99696.25;6281165;20;2483602;-58
2022/06/27 02:37:20;;;;;;;;;16.33;15.33;;;;;18.86;90.11;99696.03;6279345;20;2823191;-59
2022/06/27 02:39:50;;;;;;;;;16.00;15.50;;;;;18.87;89.75;99700.44;6311526;20;2821123;-59
2022/06/27 02:42:22;;;;;;;;;17.00;15.50;;;;;18.79;90.13;99695.75;6276955;20;2822170;-58
2022/06/27 02:44:50;;;;;;;;;18.00;16.00;;;;;18.56;91.11;99695.22;6280182;20;2823254;-59
2022/06/27 02:47:22;;;;;;;;;20.67;18.67;;;;;18.37;92.20;99692.50;6281789;20;3561715;-59
2022/06/27 02:49:52;;;;;;;;;23.00;21.00;;;;;18.43;92.45;99694.63;6278641;20;2827379;-52
2022/06/27 02:52:33;;;;;;;;;20.00;18.00;;;;;18.54;91.06;99696.34;6315081;20;3570048;-51
2022/06/27 02:55:15;;;;;;;;;17.33;16.67;;;;;18.88;88.89;99698.59;6307044;20;2485700;-48
2022/06/27 02:58:15;;;;;;;;;19.50;17.50;;;;;18.42;90.02;99693.78;6310035;20;2833633;-52
2022/06/27 03:00:47;;;;;;;;;18.50;17.50;;;;;18.42;91.38;99698.34;6279656;20;2829453;-50
2022/06/27 03:03:17;;;;;;;;;17.00;16.00;;;;;18.32;92.60;99692.06;6276610;20;2833591;-52
2022/06/27 03:06:04;;;;;;;;;18.67;18.67;;;;;18.21;92.83;99702.06;6276082;20;2492160;-50
2022/06/27 03:08:46;;;;;;;;;19.67;19.67;;;;;18.29;92.05;99704.09;6310570;20;2483610;-51
2022/06/27 03:11:23;;;;;;;;;17.00;17.00;;;;;18.29;92.14;99697.78;6307692;20;3571262;-53
2022/06/27 03:13:54;;;;;;;;;19.50;19.50;;;;;18.22;93.28;99705.69;6277481;20;2838813;-49
2022/06/27 03:16:23;;;;;;;;;18.00;18.00;;;;;18.56;92.44;99716.06;6277803;20;2483701;-52
2022/06/27 03:18:54;;;;;;;;;15.00;15.00;;;;;18.92;89.22;99711.75;6276357;20;2812951;-52
2022/06/27 03:21:23;;;;;;;;;17.50;17.50;;;;;18.33;92.08;99710.09;6282521;20;2831987;-52
2022/06/27 03:23:52;;;;;;;;;17.00;17.00;;;;;18.48;91.31;99713.22;6284155;20;2831545;-52
2022/06/27 03:26:20;;;;;;;;;19.67;18.67;;;;;18.23;91.89;99714.69;6283815;20;2841947;-50
2022/06/27 03:28:48;;;;;;;;;18.00;15.00;;;;;18.59;90.71;99716.66;6315378;20;2485697;-52
2022/06/27 03:31:17;;;;;;;;;16.50;16.00;;;;;18.75;90.27;99717.97;6284103;20;2827401;-51
2022/06/27 03:33:46;;;;;;;;;18.67;17.33;;;;;18.97;89.62;99724.91;6285794;20;3558595;-48
2022/06/27 03:36:13;;;;;;;;;17.00;17.00;;;;;18.77;90.57;99718.66;6311491;20;2483668;-50
2022/06/27 03:38:42;;;;;;;;;15.50;15.50;;;;;19.24;88.41;99721.38;6284858;20;2817057;-52
2022/06/27 03:41:11;;;;;;;;;17.00;16.50;;;;;19.41;88.06;99723.34;6283926;20;2827832;-51
2022/06/27 03:43:39;;;;;;;;;18.00;15.50;;;;;19.28;89.03;99723.66;6287104;20;2817983;-49
2022/06/27 03:46:08;;;;;;;;;15.50;14.50;;;;;19.57;87.59;99725.41;6280798;20;2817144;-52
2022/06/27 03:51:24;;;;;;;;;13.33;13.33;;;;;19.54;88.95;99725.72;6282910;20;3527314;-55
2022/06/27 03:53:52;;;;;;;;;13.33;13.00;;;;;19.65;88.37;99725.50;6284213;20;3535706;-55
2022/06/27 03:56:20;;;;;;;;;16.00;15.50;;;;;19.91;86.96;99720.22;6282578;20;2483627;-56
2022/06/27 03:58:48;;;;;;;;;16.00;14.50;;;;;19.94;86.42;99725.34;6286749;20;2485664;-55
2022/06/27 04:01:16;;;;;;;;;16.00;15.50;;;;;19.95;86.85;99721.59;6280214;20;2487746;-57
2022/06/27 04:03:45;;;;;;;;;16.67;15.00;;;;;19.79;88.15;99736.94;6284102;20;3552322;-57
2022/06/27 04:06:13;;;;;;;;;15.00;15.00;;;;;20.25;86.46;99726.84;6283598;20;2487780;-48
2022/06/27 04:08:42;;;;;;;;;16.50;15.00;;;;;20.31;85.18;99738.00;6287143;20;2489895;-50
2022/06/27 04:11:11;;;;;;;;;17.00;14.00;;;;;20.15;86.22;99732.38;6285488;20;2811848;-49
2022/06/27 04:13:40;;;;;;;;;15.00;14.33;;;;;19.95;86.98;99743.41;6294193;20;3541944;-52
2022/06/27 04:16:08;;;;;;;;;16.00;16.00;;;;;20.24;86.81;99745.06;6317905;20;2827353;-50
2022/06/27 04:18:37;;;;;;;;;15.50;15.50;;;;;20.48;85.51;99749.91;6286627;20;2817556;-54
2022/06/27 04:21:06;;;;;;;;;17.00;15.50;;;;;20.19;87.74;99739.22;6271833;20;2819667;-52
2022/06/27 04:23:35;;;;;;;;;17.00;17.00;;;;;20.38;86.96;99744.56;6287722;20;2831882;-50
2022/06/27 04:26:02;;;;;;;;;18.00;18.00;;;;;20.57;85.29;99750.88;6285109;20;2492139;-56
2022/06/27 04:28:31;;;;;;;;;15.00;15.00;;;;;20.64;86.21;99748.38;6289044;20;2810810;-57
2022/06/27 04:31:00;;;;;;;;;19.00;17.00;;;;;20.72;85.63;99748.44;6282521;20;2835697;-56
2022/06/27 04:33:29;;;;;;;;;15.00;15.00;;;;;20.71;85.81;99761.22;6284867;20;2496139;-57
2022/06/27 04:36:05;;;;;;;;;13.50;13.50;;;;;21.00;85.65;99760.09;6277625;20;2810696;-55
2022/06/27 04:38:34;;;;;;;;;17.67;17.67;;;;;21.05;85.46;99763.19;6283025;20;3569003;-55
2022/06/27 04:41:02;;;;;;;;;20.00;16.00;;;;;21.13;85.46;99771.44;6276765;20;2835731;-57
2022/06/27 04:43:34;;;;;;;;;13.33;13.33;;;;;21.30;84.67;99763.34;6281807;20;3521588;-57
2022/06/27 04:46:05;;;;;;;;;15.00;15.00;;;;;21.44;84.06;99760.91;6314356;20;3529524;-57
2022/06/27 04:48:34;;;;;;;;;15.67;15.33;;;;;21.39;84.44;99765.16;6318456;20;3541923;-57
2022/06/27 04:51:03;;;;;;;;;15.00;15.00;;;;;21.55;84.22;99762.50;6316240;20;3531751;-56
2022/06/27 04:53:33;;;;;;;;;15.00;15.00;;;;;21.75;83.55;99762.22;6314090;20;3536715;-57
2022/06/27 04:56:01;;;;;;;;;15.00;15.00;;;;;21.62;84.13;99769.03;6316019;20;2491939;-57
2022/06/27 04:58:30;;;;;;;;;16.33;16.33;;;;;21.82;83.76;99763.28;6318643;20;3558563;-56
2022/06/27 05:00:59;;;;;;;;;18.00;17.00;;;;;21.94;82.83;99774.78;6317139;20;2823191;-56
2022/06/27 05:03:28;;;;;;;;;14.00;13.00;;;;;21.88;83.25;99770.81;6288227;20;2483689;-58
2022/06/27 05:05:56;;;;;;;;;15.33;15.00;;;;;22.05;82.35;99777.22;6317818;20;3543029;-57
2022/06/27 05:08:25;;;;;;;;;16.00;16.00;;;;;22.24;81.98;99776.09;6316342;20;2829496;-57
2022/06/27 05:10:54;;;;;;;;;16.33;16.33;;;;;22.21;81.52;99782.75;6289917;20;3556528;-57
2022/06/27 05:13:22;;;;;;;;;15.33;15.33;;;;;22.38;81.29;99777.31;6319978;20;3541947;-57
2022/06/27 05:15:51;;;;;;;;;16.50;16.50;;;;;22.66;80.05;99789.66;6316873;20;2829521;-57
2022/06/27 05:18:20;;;;;;;;;18.00;18.00;;;;;22.74;79.42;99786.94;6285173;20;3561781;-58
2022/06/27 05:20:49;;;;;;;;;16.00;14.33;;;;;22.95;79.08;99775.47;6288337;20;3534629;-57
2022/06/27 05:23:17;;;;;;;;;18.50;16.00;;;;;23.32;77.53;99782.28;6316543;20;2834615;-57
2022/06/27 05:25:46;;;;;;;;;16.00;16.00;;;;;23.33;78.78;99785.88;6288956;20;3555429;-57
2022/06/27 05:28:15;;;;;;;;;12.33;12.33;;;;;23.84;76.04;99787.31;6316803;20;3539802;-56
2022/06/27 05:30:44;;;;;;;;;16.00;16.00;;;;;24.08;74.79;99793.72;6287669;20;2829462;-57
2022/06/27 05:33:13;;;;;;;;;16.00;16.00;;;;;23.70;75.39;99796.25;6290880;20;3557580;-56
2022/06/27 05:35:41;;;;;;;;;15.50;15.50;;;;;23.81;74.99;99798.63;6283310;20;2821146;-58
2022/06/27 05:38:10;;;;;;;;;15.00;15.00;;;;;23.91;75.26;99800.31;6287987;20;2483606;-56
2022/06/27 05:40:39;;;;;;;;;13.00;11.67;;;;;24.07;75.28;99800.25;6316224;20;3507758;-57
2022/06/27 05:43:08;;;;;;;;;16.50;15.50;;;;;24.51;72.55;99796.91;6314889;20;2823191;-57
2022/06/27 05:45:37;;;;;;;;;19.00;16.00;;;;;24.34;72.56;99803.53;6285945;20;3563805;-57
2022/06/27 05:48:07;;;;;;;;;14.00;14.00;;;;;24.42;72.69;99803.47;6282326;20;2487783;-58
2022/06/27 05:50:36;;;;;;;;;12.00;12.00;;;;;24.46;72.17;99816.69;6321129;20;2800284;-57
2022/06/27 05:53:06;;;;;;;;;13.00;13.00;;;;;24.40;73.16;99808.28;6316859;20;3529427;-53
2022/06/27 05:55:35;;;;;;;;;13.00;12.00;;;;;24.93;70.99;99803.81;6318035;20;2483709;-53
2022/06/27 05:58:04;;;;;;;;;13.33;11.67;;;;;25.02;70.99;99813.72;6314304;20;3525276;-51
2022/06/27 06:00:33;;;;;;;;;14.00;14.00;;;;;25.02;68.30;99808.22;6284966;20;2798228;-50
2022/06/27 06:03:03;;;;;;;;;14.67;14.67;;;;;25.16;68.29;99803.81;6289178;20;3527375;-51
2022/06/27 06:05:33;;;;;;;;;12.33;12.33;;;;;25.25;68.24;99807.34;6319576;20;2483725;-52
2022/06/27 06:08:04;;;;;;;;;14.00;13.50;;;;;25.21;68.39;99812.34;6315855;20;2802327;-54
2022/06/27 06:10:34;;;;;;;;;14.00;11.50;;;;;25.07;69.09;99807.66;6285766;20;2794118;-54
2022/06/27 06:13:04;;;;;;;;;13.00;13.00;;;;;25.37;68.34;99811.34;6284460;20;2483631;-52
2022/06/27 06:15:33;;;;;;;;;13.33;13.33;;;;;25.15;68.37;99815.81;6316059;20;2483724;-52
2022/06/27 06:18:02;;;;;;;;;16.67;15.67;;;;;25.34;68.46;99811.72;6317988;20;3546191;-50
2022/06/27 06:20:32;;;;;;;;;17.67;16.00;;;;;25.56;67.07;99816.28;6285166;20;3561696;-54
2022/06/27 06:23:01;;;;;;;;;12.33;12.33;;;;;26.03;66.27;99812.31;6287144;20;3526382;-59
2022/06/27 06:25:30;;;;;;;;;19.00;16.33;;;;;26.18;66.47;99825.22;6315406;20;2831589;-58
2022/06/27 06:28:04;;;;;;;;;14.00;13.00;;;;;26.32;65.53;99824.34;6318901;20;2487757;-59
2022/06/27 06:30:34;;;;;;;;;13.00;13.00;;;;;26.37;65.42;99829.25;6315997;20;3528381;-58
2022/06/27 06:33:03;;;;;;;;;16.00;16.00;;;;;26.72;64.65;99833.06;6315744;20;2827359;-58
2022/06/27 06:35:33;;;;;;;;;12.00;12.00;;;;;26.75;63.65;99827.16;6286179;20;2483568;-58
2022/06/27 06:38:06;;;;;;;;;9.00;9.00;;;;;27.32;61.91;99834.50;6324153;20;2748250;-58
2022/06/27 06:40:34;;;;;;;;;15.50;14.00;;;;;27.64;61.20;99834.13;6315845;20;2813187;-59
2022/06/27 06:43:04;;;;;;;;;13.00;13.00;;;;;27.69;61.11;99837.13;6283027;20;3527444;-58
2022/06/27 06:45:33;;;;;;;;;15.00;14.00;;;;;27.89;59.88;99835.38;6319210;20;3533775;-55
2022/06/27 06:48:02;;;;;;;;;13.33;13.33;;;;;28.28;59.14;99836.63;6317361;20;3522154;-54
2022/06/27 06:50:30;;;;;;;;;13.67;13.00;;;;;28.15;58.93;99840.19;6320105;20;3535629;-58
2022/06/27 06:53:00;;;;;;;;;14.00;14.00;;;;;28.49;59.28;99846.75;6314694;20;2833591;-54
2022/06/27 06:55:29;;;;;;;;;13.67;13.67;;;;;28.55;58.17;99845.91;6291702;20;3535666;-55
2022/06/27 06:57:58;;;;;;;;;15.00;15.00;;;;;28.69;57.88;99849.53;6321598;20;2483557;-58
2022/06/27 07:00:27;;;;;;;;;14.00;12.33;;;;;28.60;57.03;99848.91;6321719;20;2483609;-55
2022/06/27 07:02:56;;;;;;;;;14.00;14.00;;;;;29.19;55.95;99846.47;6319231;20;2802326;-57
2022/06/27 07:05:25;;;;;;;;;14.00;14.00;;;;;29.20;56.22;99851.81;6295165;20;2483698;-58
2022/06/27 07:07:54;;;;;;;;;18.50;14.00;;;;;29.01;55.90;99841.53;6318938;20;2812765;-54
2022/06/27 07:10:23;;;;;;;;;14.00;14.00;;;;;29.19;57.24;99841.78;6288448;20;2801341;-55
2022/06/27 07:12:52;;;;;;;;;16.00;15.00;;;;;29.07;56.28;99841.56;6291795;20;3538765;-57
2022/06/27 07:15:21;;;;;;;;;13.33;13.33;;;;;29.48;56.18;99843.28;6325275;20;3536682;-57
2022/06/27 07:17:52;;;;;;;;;13.33;13.33;;;;;29.84;54.26;99843.91;6323951;20;3529537;-58
2022/06/27 07:20:22;;;;;;;;;13.67;13.67;;;;;30.19;54.36;99847.19;6324060;20;3535637;-56
2022/06/27 07:22:51;;;;;;;;;14.50;13.00;;;;;29.87;53.57;99849.84;6320028;20;2800314;-58
2022/06/27 07:25:20;;;;;;;;;16.00;14.67;;;;;30.68;52.31;99847.66;6288389;20;2483571;-58
2022/06/27 07:27:51;;;;;;;;;14.00;12.50;;;;;30.14;52.95;99844.22;6319869;20;2799288;-57
2022/06/27 07:30:20;;;;;;;;;13.00;13.00;;;;;30.31;52.88;99850.19;6290206;20;2483670;-60
2022/06/27 07:32:48;;;;;;;;;8.67;8.67;;;;;30.76;51.08;99848.25;6319855;20;3468430;-59
2022/06/27 07:35:17;;;;;;;;;13.33;13.33;;;;;30.36;51.83;99842.91;6323222;20;3530484;-60
2022/06/27 07:37:48;;;;;;;;;13.00;11.33;;;;;30.55;50.83;99848.56;6322413;20;3531515;-59
2022/06/27 07:40:21;;;;;;;;;12.67;12.67;;;;;30.58;50.68;99851.75;6321350;20;3523172;-60
2022/06/27 07:42:53;;;;;;;;;13.00;11.67;;;;;30.69;51.08;99844.66;6322194;20;2483667;-61
2022/06/27 07:45:24;;;;;;;;;12.00;12.00;;;;;30.94;51.58;99849.41;6324261;20;3521049;-60
2022/06/27 07:47:56;;;;;;;;;13.50;12.00;;;;;30.86;49.67;99853.34;6320773;20;2801290;-59
2022/06/27 07:50:42;;;;;;;;;8.40;6.40;;;;;30.57;50.77;99855.59;6317650;20;2744094;-60
2022/06/27 07:53:17;;;;;;;;;12.00;12.00;;;;;31.25;49.66;99849.44;6289823;20;2483602;-60
2022/06/27 07:55:58;;;;;;;;;10.33;10.33;;;;;31.62;49.00;99852.31;6320444;20;3513805;-60
2022/06/27 07:58:35;;;;;;;;;11.67;11.67;;;;;31.04;48.83;99850.66;6320091;20;2483586;-59
2022/06/27 08:01:09;;;;;;;;;12.67;11.67;;;;;31.43;48.45;99858.91;6322326;20;3523282;-60
2022/06/27 08:03:47;;;;;;;;;11.00;11.00;;;;;31.53;48.73;99853.69;6324350;20;3502308;-59
2022/06/27 08:06:27;;;;;;;;;11.50;11.50;;;;;31.80;48.52;99861.75;6315457;20;2786704;-60
2022/06/27 08:09:01;;;;;;;;;12.00;12.00;;;;;31.94;47.90;99857.81;6290021;20;3526492;-57
2022/06/27 08:11:35;;;;;;;;;14.00;13.00;;;;;31.93;47.93;99864.44;6287666;20;3513882;-58
2022/06/27 08:14:09;;;;;;;;;9.00;9.00;;;;;32.18;47.23;99860.72;6317713;20;2748247;-61
2022/06/27 08:16:40;;;;;;;;;9.00;9.00;;;;;31.92;48.00;99862.72;6317388;20;3461688;-60
2022/06/27 08:19:10;;;;;;;;;13.33;12.00;;;;;32.05;46.27;99861.75;6318705;20;3520115;-60
2022/06/27 08:21:41;;;;;;;;;11.00;11.00;;;;;32.18;46.22;99866.28;6319424;20;3507647;-60
2022/06/27 08:24:16;;;;;;;;;10.00;10.00;;;;;32.41;45.49;99866.44;6317707;20;3518034;-60
2022/06/27 08:26:47;;;;;;;;;8.00;8.00;;;;;32.58;44.11;99864.75;6317857;20;2739891;-60
2022/06/27 08:29:16;;;;;;;;;14.67;11.00;;;;;32.10;44.80;99875.81;6318834;20;2784717;-57
2022/06/27 08:31:46;;;;;;;;;7.33;7.33;;;;;32.13;45.27;99876.19;6318106;20;2746179;-57
2022/06/27 08:34:16;;;;;;;;;11.00;11.00;;;;;32.46;45.24;99872.16;6321255;20;2483654;-54
2022/06/27 08:36:44;;;;;;;;;8.33;7.33;;;;;32.85;44.97;99872.72;6315682;20;2750498;-57
2022/06/27 08:39:16;;;;;;;;;9.33;9.33;;;;;31.89;45.53;99866.81;6322852;20;2766993;-56
2022/06/27 08:41:47;;;;;;;;;12.33;11.33;;;;;32.22;45.68;99884.22;6317858;20;3515984;-57
2022/06/27 08:44:17;;;;;;;;;9.67;9.33;;;;;32.23;44.97;99874.78;6321282;20;2759306;-57
2022/06/27 08:46:46;;;;;;;;;9.00;9.00;;;;;32.17;46.13;99872.94;6312839;20;3469036;-55
2022/06/27 08:49:16;;;;;;;;;9.00;7.33;;;;;32.36;44.48;99875.50;6320131;20;2728476;-56
2022/06/27 08:51:45;;;;;;;;;6.67;6.67;;;;;32.58;45.47;99883.38;6320646;20;2746218;-57
2022/06/27 08:54:14;;;;;;;;;7.00;7.00;;;;;32.79;44.01;99877.31;6322893;20;2734708;-56
2022/06/27 08:56:43;;;;;;;;;8.67;8.67;;;;;32.89;42.23;99876.75;6316820;20;3481536;-58
2022/06/27 08:59:12;;;;;;;;;7.00;7.00;;;;;32.85;40.92;99878.28;6322776;20;2748205;-60
2022/06/27 09:01:48;;;;;;;;;9.33;8.33;;;;;33.05;42.42;99877.19;6318152;20;3463892;-60
2022/06/27 09:04:17;;;;;;;;;9.00;9.00;;;;;32.54;43.17;99866.28;6323310;20;2752366;-60
2022/06/27 09:06:48;;;;;;;;;9.33;8.00;;;;;33.03;42.23;99871.00;6315214;20;3472570;-60
2022/06/27 09:09:17;;;;;;;;;9.33;9.33;;;;;32.45;43.18;99866.84;6326915;20;2761208;-59
2022/06/27 09:11:47;;;;;;;;;9.67;8.67;;;;;33.49;41.47;99872.19;6326819;20;2758641;-61
2022/06/27 09:14:43;;;;;;;;;7.67;7.33;;;;;32.20;43.09;99869.69;6328563;20;2746533;-61
2022/06/27 09:17:15;;;;;;;;;9.00;9.00;;;;;32.82;42.21;99872.34;6319863;20;2771111;-61
2022/06/27 09:19:54;;;;;;;;;9.00;7.67;;;;;32.66;42.60;99865.53;6326923;20;2745060;-60
2022/06/27 09:22:30;;;;;;;;;10.33;10.00;;;;;32.95;42.50;99867.44;6322566;20;2790932;-60
2022/06/27 09:25:13;;;;;;;;;9.67;9.00;;;;;33.22;41.73;99873.47;6324499;20;2755545;-60
2022/06/27 09:27:50;;;;;;;;;8.00;8.00;;;;;33.08;41.41;99862.81;6322672;20;2752331;-61
2022/06/27 09:30:21;;;;;;;;;11.00;11.00;;;;;33.38;40.90;99871.94;6319019;20;3510662;-61
2022/06/27 09:32:59;;;;;;;;;9.33;8.67;;;;;33.06;41.53;99868.59;6317701;20;3478463;-60
2022/06/27 09:35:34;;;;;;;;;8.67;8.67;;;;;32.95;42.70;99870.22;6327510;20;2752336;-60
2022/06/27 09:38:07;;;;;;;;;10.00;10.00;;;;;33.50;41.17;99865.53;6318033;20;3500213;-61
2022/06/27 09:40:40;;;;;;;;;8.00;7.33;;;;;33.64;41.16;99865.09;6319003;20;2737779;-61
2022/06/27 09:43:10;;;;;;;;;9.00;8.00;;;;;33.18;41.61;99877.00;6315258;20;3465845;-61
2022/06/27 09:45:41;;;;;;;;;8.00;8.00;;;;;33.48;41.67;99864.94;6313562;20;3467951;-61
2022/06/27 09:48:18;;;;;;;;;11.00;11.00;;;;;33.49;42.06;99866.63;6322462;20;2788783;-57
2022/06/27 09:50:49;;;;;;;;;12.67;11.00;;;;;33.86;40.61;99868.13;6315054;20;3519081;-59
2022/06/27 09:53:25;;;;;;;;;11.00;9.33;;;;;33.64;41.10;99869.81;6284239;20;2765064;-59
2022/06/27 09:55:58;;;;;;;;;9.00;9.00;;;;;33.94;40.37;99866.03;6313787;20;2750261;-59
2022/06/27 09:58:29;;;;;;;;;8.67;8.67;;;;;33.21;41.16;99859.81;6317164;20;2750489;-58
2022/06/27 10:01:18;;;;;;;;;8.67;8.67;;;;;32.85;40.92;99852.41;6314227;20;2745074;-60
2022/06/27 10:03:47;;;;;;;;;10.33;7.33;;;;;33.62;40.17;99852.50;6316304;20;3486705;-60
2022/06/27 10:06:16;;;;;;;;;8.67;8.67;;;;;33.35;40.48;99850.13;6312016;20;2745320;-59
2022/06/27 10:08:49;;;;;;;;;7.67;7.67;;;;;33.39;40.36;99845.81;6323769;20;2743050;-60
2022/06/27 10:11:25;;;;;;;;;8.33;7.00;;;;;33.80;39.33;99851.53;6328448;20;2752345;-59
2022/06/27 10:14:32;;;;;;;;;9.67;7.67;;;;;33.35;38.68;99839.00;6322129;20;2759649;-60
2022/06/27 10:17:01;;;;;;;;;8.00;8.00;;;;;33.16;39.10;99846.59;6312931;20;3466889;-60
2022/06/27 10:19:30;;;;;;;;;9.33;9.33;;;;;33.03;40.57;99846.81;6311179;20;3481476;-58
2022/06/27 10:21:59;;;;;;;;;7.00;7.00;;;;;33.20;39.33;99839.50;6311592;20;3466900;-59
2022/06/27 10:24:32;;;;;;;;;6.00;6.00;;;;;33.23;39.55;99832.59;6316937;20;2744074;-60
2022/06/27 10:27:04;;;;;;;;;8.00;8.00;;;;;33.43;40.32;99835.88;6314050;20;3459605;-58
2022/06/27 10:29:43;;;;;;;;;8.00;8.00;;;;;33.81;39.08;99834.59;6322423;20;2752323;-59
2022/06/27 10:32:46;;;;;;;;;9.33;8.00;;;;;33.52;38.80;99829.94;6314531;20;2763859;-61
2022/06/27 10:35:17;;;;;;;;;9.67;9.67;;;;;34.45;38.13;99830.97;6314914;20;2779419;-59
2022/06/27 10:37:46;;;;;;;;;7.00;7.00;;;;;33.34;39.40;99823.41;6317192;20;2732532;-59
2022/06/27 10:40:20;;;;;;;;;9.00;9.00;;;;;33.59;38.42;99827.91;6323125;20;2755474;-59
2022/06/27 10:42:55;;;;;;;;;8.00;8.00;;;;;33.83;38.26;99826.81;6316611;20;3470020;-59
2022/06/27 10:45:28;;;;;;;;;10.67;10.67;;;;;33.92;38.01;99826.47;6316091;20;3514026;-60
2022/06/27 10:48:02;;;;;;;;;8.00;8.00;;;;;34.04;37.40;99824.47;6285922;20;2750285;-59
2022/06/27 10:50:42;;;;;;;;;8.67;8.67;;;;;33.98;37.33;99817.13;6313979;20;2745063;-58
2022/06/27 10:53:19;;;;;;;;;8.33;8.33;;;;;33.93;37.77;99814.22;6314045;20;3458583;-59
2022/06/27 10:55:48;;;;;;;;;8.00;8.00;;;;;33.69;36.94;99817.03;6311875;20;3472160;-59
2022/06/27 10:58:22;;;;;;;;;8.00;7.00;;;;;34.16;36.93;99811.41;6314914;20;2748361;-58
2022/06/27 11:00:51;;;;;;;;;8.67;8.67;;;;;34.71;35.48;99816.44;6313687;20;3461751;-60
2022/06/27 11:03:27;;;;;;;;;8.67;8.67;;;;;34.41;36.13;99813.03;6315933;20;3465903;-58
2022/06/27 11:06:05;;;;;;;;;9.00;9.00;;;;;34.63;37.03;99808.50;6313464;20;3472255;-59
2022/06/27 11:08:37;;;;;;;;;11.00;10.00;;;;;34.43;36.63;99794.94;6319277;20;2788815;-59
2022/06/27 11:11:06;;;;;;;;;8.67;8.00;;;;;34.68;36.80;99803.00;6315674;20;2751357;-59
2022/06/27 11:14:10;;;;;;;;;10.00;10.00;;;;;34.63;37.26;99799.28;6313840;20;3513800;-60
2022/06/27 11:16:38;;;;;;;;;9.33;9.00;;;;;34.35;36.97;99800.09;6282819;20;2483577;-59
2022/06/27 11:20:04;;;;;;;;;10.00;9.00;;;;;33.91;37.50;99794.94;6314738;20;3479487;-59
2022/06/27 11:21:56;;;;;;;;;9.33;9.00;;;;;34.12;37.55;99787.91;6310357;20;3479433;-59
2022/06/27 11:24:25;;;;;;;;;9.00;9.00;;;;;34.47;36.27;99781.38;6313150;20;2747116;-59